Nearby METAR Reports

 

KPMD - Palmdale, California, USA
Distance from station: NNE 12mi, 19km
Updated: Mon, 17-Dec-2018 9:53am PST
Overcast
Overcast
 Wind from SW
Wind: SW 13 mph , 20 km/h
Temperature: 57°F , 14°C
Dew Point: 37°F , 3°C
Humidity: 48%
Barometer: 30.20 inHg , 1022.7 hPa
Clouds: Overcast
Visibility: 10 miles , 16 km
Cloud details: Overcast 5500 ft
2018/12/17 17:53 KPMD 171753Z 23011KT 10SM OVC055 14/03 A3020 RMK AO2 SLP221 T01390033 10139 20094 51018
KWJF - Lancaster/Fox, California, USA
Distance from station: N 17mi, 27km
Updated: Mon, 17-Dec-2018 9:56am PST
Overcast
Overcast
 Wind from SW
Wind: SW 13 mph , 20 km/h
Temperature: 57°F , 14°C
Dew Point: 39°F , 4°C
Humidity: 51%
Barometer: 30.20 inHg , 1022.7 hPa
Clouds: Overcast
Visibility: 10 miles , 16 km
Cloud details: Overcast 5500 ft
2018/12/17 17:56 KWJF 171756Z 23011KT 10SM OVC055 14/04 A3020 RMK AO2 SLP230 T01440039 10144 20078 51018
 
KMWS - Mount Wilson, California, USA
Distance from station: SSE 18mi, 30km
Updated: Wed, 13-May-2015 6:45am PDT
NOT Current

 Wind from S
Wind: S 3 mph , 6 km/h, Gust: 5 mph , 7 km/h
Temperature: 43°F , 6°C
Dew Point: -0°F , -18°C
Humidity: 16%
2015/05/13 13:45 KMWS 131345Z 18003G04KT 06/M18 RMK SNOW DEPTH 1.00
KWHP - La / Whiteman, California, USA
Distance from station: SW 21mi, 34km
Updated: Mon, 17-Dec-2018 9:50am PST
Overcast
Overcast
 Wind from calm
Wind: Calm
Temperature: 57°F , 14°C
Dew Point: 48°F , 9°C
Humidity: 72%
Barometer: 30.26 inHg , 1024.7 hPa
Clouds: Overcast
Visibility: 10 miles , 16 km
Cloud details: Overcast 4500 ft
2018/12/17 17:50 KWHP 171750Z 00000KT 10SM OVC045 14/09 A3026
 
KBUR - Burbank, California, USA
Distance from station: SSW 22mi, 35km
Updated: Mon, 17-Dec-2018 9:53am PST
Overcast
Overcast
 Wind from calm
Wind: Calm
Temperature: 57°F , 14°C
Dew Point: 52°F , 11°C
Humidity: 82%
Barometer: 30.22 inHg , 1023.4 hPa
Clouds: Overcast
Visibility: 10 miles , 16 km
Cloud details: Overcast 7000 ft
2018/12/17 17:53 KBUR 171753Z 00000KT 10SM OVC070 14/11 A3022 RMK AO2 SLP227 60000 T01440106 10144 20106 51018 $
KVNY - Van Nuys, California, USA
Distance from station: SW 25mi, 40km
Updated: Mon, 17-Dec-2018 9:51am PST
Overcast
Overcast
 Wind from calm
Wind: Calm
Temperature: 61°F , 16°C
Dew Point: 48°F , 9°C
Humidity: 63%
Barometer: 30.22 inHg , 1023.4 hPa
Clouds: Overcast
Visibility: 8 miles , 13 km
Cloud details: Mostly cloudy 2100 ft
Overcast 9000 ft
2018/12/17 17:51 KVNY 171751Z 00000KT 8SM BKN021 OVC090 16/09 A3022 RMK AO2 SLP230 60000 T01560094 10156 20117 51019
 
KEDW - Edwards Afb, California, USA
Distance from station: NNE 33mi, 53km
Updated: Mon, 17-Dec-2018 8:58am PST
Partly cloudy
Partly cloudy
 Wind from WSW
Wind: WSW 14 mph , 22 km/h
Temperature: 54°F , 12°C
Dew Point: 37°F , 3°C
Humidity: 54%
Barometer: 30.17 inHg , 1021.7 hPa
Clouds: Partly cloudy
Visibility: 50 miles , 80 km
Cloud details: Partly cloudy 7000 ft
Partly cloudy 10000 ft
2018/12/17 16:58 KEDW 171658Z 24012KT 50SM SCT070 SCT100 12/03 A3017 RMK AO2A SLP217 T01180030
KSMO - Santa Monica, California, USA
Distance from station: SSW 35mi, 57km
Updated: Mon, 17-Dec-2018 9:51am PST
Overcast
Overcast
 Wind from NE
Wind: NE 6 mph , 9 km/h
Temperature: 66°F , 19°C
Dew Point: 52°F , 11°C
Humidity: 60%
Barometer: 30.23 inHg , 1023.7 hPa
Clouds: Overcast
Visibility: 10 miles , 16 km
Cloud details: Few Clouds 6500 ft
Overcast 9500 ft
2018/12/17 17:51 KSMO 171751Z 04005KT 10SM FEW065 OVC095 19/11 A3023 RMK AO2 SLP235 60000 T01940106 10194 20144 51021
 
KLAX - Los Angeles, California, USA
Distance from station: SSW 39mi, 63km
Updated: Mon, 17-Dec-2018 9:53am PST
Mostly cloudy
Mostly cloudy
 Wind from ESE
Wind: ESE 5 mph , 7 km/h
Temperature: 63°F , 17°C
Dew Point: 54°F , 12°C
Humidity: 73%
Barometer: 30.23 inHg , 1023.7 hPa
Clouds: Mostly cloudy
Visibility: 9 miles , 14 km
Cloud details: Partly cloudy 3000 ft
Mostly cloudy 6500 ft
Mostly cloudy 10000 ft
2018/12/17 17:53 KLAX 171753Z 12004KT 9SM SCT030 BKN065 BKN100 17/12 A3023 RMK AO2 SLP235 T01670117 10172 20128 51022
KMHV - Mojave, California, USA
Distance from station: N 41mi, 66km
Updated: Mon, 17-Dec-2018 9:40am PST
Clear
Clear
 Wind from W
Wind: W 14 mph , 22 km/h, Gust: 20 mph , 31 km/h
Temperature: 57°F , 14°C
Dew Point: 41°F , 5°C
Humidity: 55%
Barometer: 30.18 inHg , 1022 hPa
Clouds: Clear
Visibility: 10 miles , 16 km
2018/12/17 17:40 KMHV 171740Z AUTO 26012G17KT 10SM CLR 14/05 A3018 RMK A01
 
KFUL - Fullerton, California, USA
Distance from station: SSE 44mi, 70km
Updated: Mon, 17-Dec-2018 9:53am PST
Few Clouds
Few Clouds
 Wind from calm
Wind: Calm
Temperature: 63°F , 17°C
Dew Point: 54°F , 12°C
Humidity: 73%
Barometer: 30.22 inHg , 1023.4 hPa
Clouds: Few Clouds
Visibility: 10 miles , 16 km
Cloud details: Few Clouds 11000 ft
2018/12/17 17:53 KFUL 171753Z 00000KT 10SM FEW110 17/12 A3022 RMK AO2 SLP233 T01720122 10172 20128 51016
KONT - Ontario, California, USA
Distance from station: SE 45mi, 72km
Updated: Mon, 17-Dec-2018 9:53am PST
Haze, Mostly cloudy
Haze, Mostly cloudy
 Wind from calm
Wind: Calm
Temperature: 57°F , 14°C
Dew Point: 50°F , 10°C
Humidity: 77%
Barometer: 30.22 inHg , 1023.4 hPa
Summary: Haze
Clouds: Mostly cloudy
Visibility: 4 miles , 6 km
Cloud details: Few Clouds 1600 ft
Partly cloudy 10000 ft
Mostly cloudy 20000 ft
2018/12/17 17:53 KONT 171753Z 00000KT 4SM HZ FEW016 SCT100 BKN200 14/10 A3022 RMK AO2 SLP232 T01440100 10144 20106 51022
 
KLGB - Long Beach, California, USA
Distance from station: S 46mi, 74km
Updated: Mon, 17-Dec-2018 9:53am PST
Mostly cloudy
Mostly cloudy
 Wind from calm
Wind: Calm
Temperature: 64°F , 18°C
Dew Point: 55°F , 13°C
Humidity: 73%
Barometer: 30.24 inHg , 1024 hPa
Clouds: Mostly cloudy
Visibility: 9 miles , 14 km
Cloud details: Mostly cloudy 3100 ft
2018/12/17 17:53 KLGB 171753Z 00000KT 9SM BKN031 18/13 A3024 RMK AO2 SLP238 60000 T01780133 10178 20128 53021 $
KVCV - Victorville, California, USA
Distance from station: E 46mi, 74km
Updated: Mon, 17-Dec-2018 9:45am PST
Partly cloudy
Partly cloudy
 Wind from S
Wind: S 8 mph , 13 km/h
Barometer: 30.20 inHg , 1022.7 hPa
Clouds: Partly cloudy
Visibility: 10 miles , 16 km
Cloud details: Partly cloudy 9000 ft
2018/12/17 17:45 KVCV 171745Z 17007KT 10SM SCT090 A3020
 
KTSP - Tehachapi, California, USA
Distance from station: NNW 48mi, 77km
Updated: Mon, 17-Dec-2018 9:55am PST
Light rain, Overcast
Light rain, Overcast
 Wind from WNW
Wind: WNW 9 mph , 15 km/h
Temperature: 46°F , 8°C
Wind Chill: 41°F , 5°C
Dew Point: 43°F , 6°C
Humidity: 87%
Barometer: 30.22 inHg , 1023.4 hPa
Summary: Light rain
Clouds: Overcast
Visibility: 5 miles , 8 km
Cloud details: Mostly cloudy 1600 ft
Overcast 2200 ft
2018/12/17 17:55 KTSP 171755Z AUTO 30008KT 5SM -RA BKN016 OVC022 08/06 A3022 RMK AO2